Time;durP1;ratioP1;P1;durP2;ratioP2;P2;SDS_P1;SDS_P2;PMS_P1;PMS_P2;Temp;Humidity;BMP_temperature;BMP_pressure;BME280_temperature;BME280_humidity;BME280_pressure;Samples;Min_cycle;Max_cycle;Signal;HPM_P1;HPM_P2
2022/05/25 00:04:35;;;;;;;1.80;0.82;;;;;;;14.67;63.56;99631.31;10461676;28;20547;-74
2022/05/25 00:09:37;;;;;;;1.05;0.50;;;;;;;14.33;65.45;99627.81;10444186;28;20072;-74
2022/05/25 00:14:39;;;;;;;0.47;0.45;;;;;;;14.24;65.55;99638.88;10461056;28;20045;-74
2022/05/25 00:19:59;;;;;;;0.50;0.40;;;;;;;14.20;65.52;99633.84;10461028;28;20045;-74
2022/05/25 00:25:00;;;;;;;1.27;0.50;;;;;;;14.58;63.65;99634.47;10459914;28;20041;-74
2022/05/25 00:30:03;;;;;;;1.40;0.50;;;;;;;14.19;65.67;99632.13;10442328;28;20047;-74
2022/05/25 00:35:06;;;;;;;0.63;0.50;;;;;;;14.12;65.99;99648.31;10445212;28;20045;-74
2022/05/25 00:40:11;;;;;;;2.47;0.50;;;;;;;14.00;66.91;99650.75;10441754;28;20044;-75
2022/05/25 00:45:14;;;;;;;1.77;0.50;;;;;;;13.97;67.22;99649.09;10459091;28;20107;-74
2022/05/25 00:50:18;;;;;;;1.23;0.60;;;;;;;14.19;66.53;99656.78;10441968;28;20099;-74
2022/05/25 00:55:27;;;;;;;0.30;0.30;;;;;;;14.06;66.62;99642.50;10443922;28;20053;-74
2022/05/25 01:00:30;;;;;;;1.00;0.50;;;;;;;13.96;67.42;99634.19;10457829;28;20045;-74
2022/05/25 01:05:39;;;;;;;0.88;0.40;;;;;;;13.92;67.55;99635.28;10458289;28;20045;-74
2022/05/25 01:10:48;;;;;;;1.85;0.70;;;;;;;13.93;66.67;99646.72;10459021;28;20045;-74
2022/05/25 01:16:07;;;;;;;0.60;0.40;;;;;;;13.86;66.35;99665.53;10443937;28;20066;-74
2022/05/25 01:21:18;;;;;;;2.35;0.68;;;;;;;13.61;67.06;99665.91;10458566;28;20098;-74
2022/05/25 01:26:43;;;;;;;2.30;0.60;;;;;;;13.36;65.02;99675.97;10459030;28;20037;-75
2022/05/25 01:31:53;;;;;;;4.38;0.60;;;;;;;13.30;64.70;99671.00;10458975;28;20486;-74
2022/05/25 01:37:01;;;;;;;1.40;0.55;;;;;;;13.36;64.25;99673.31;10460819;28;20045;-74
2022/05/25 01:42:13;;;;;;;1.20;0.55;;;;;;;13.44;63.93;99680.88;10459087;28;20145;-75
2022/05/25 01:47:14;;;;;;;1.13;0.40;;;;;;;13.62;64.14;99683.44;10440694;28;20044;-75
2022/05/25 01:52:22;;;;;;;1.70;0.57;;;;;;;13.69;64.34;99697.22;10440914;28;20049;-75
2022/05/25 01:57:27;;;;;;;0.70;0.50;;;;;;;13.35;66.58;99696.22;10457808;28;20102;-75
2022/05/25 02:08:22;;;;;;;0.95;0.50;;;;;;;13.45;66.74;99691.34;10440804;28;20048;-74
2022/05/25 02:13:43;;;;;;;1.20;0.52;;;;;;;13.47;66.27;99692.16;10441307;28;20128;-75
2022/05/25 02:18:51;;;;;;;1.13;0.60;;;;;;;13.30;67.22;99706.16;10457596;28;20049;-74
2022/05/25 02:24:11;;;;;;;1.10;0.45;;;;;;;13.31;67.35;99699.09;10366882;22;20042;-66
2022/05/25 02:29:22;;;;;;;1.67;0.63;;;;;;;13.31;67.53;99701.72;10334354;28;20096;-66
2022/05/25 02:34:26;;;;;;;0.95;0.63;;;;;;;13.73;64.61;99695.28;10333379;28;20050;-66
2022/05/25 02:39:27;;;;;;;2.67;0.60;;;;;;;13.25;67.42;99689.69;10316258;28;20442;-66
2022/05/25 02:44:29;;;;;;;0.70;0.60;;;;;;;13.12;69.11;99667.44;10332678;28;20053;-66
2022/05/25 02:49:30;;;;;;;3.88;0.70;;;;;;;13.48;67.45;99677.16;10332673;28;20038;-66
2022/05/25 02:54:32;;;;;;;1.88;0.70;;;;;;;13.40;66.95;99681.94;10332161;28;20074;-66
2022/05/25 02:59:34;;;;;;;1.08;0.43;;;;;;;13.18;68.63;99682.09;10314861;28;20046;-66
2022/05/25 03:04:43;;;;;;;2.33;0.60;;;;;;;13.19;68.97;99695.22;10332307;28;20129;-66
2022/05/25 03:09:44;;;;;;;2.42;0.60;;;;;;;13.11;69.08;99687.69;10331978;28;20038;-66
2022/05/25 03:14:46;;;;;;;2.38;0.75;;;;;;;13.31;67.88;99688.53;10331549;28;20099;-66
2022/05/25 03:19:51;;;;;;;0.73;0.68;;;;;;;13.13;69.94;99701.66;10332137;28;20046;-66
2022/05/25 03:24:54;;;;;;;1.02;0.70;;;;;;;13.29;68.55;99704.47;10331528;28;20073;-66
2022/05/25 03:29:55;;;;;;;1.20;0.60;;;;;;;13.27;68.57;99722.13;10331205;28;20081;-66
2022/05/25 03:34:57;;;;;;;1.42;0.60;;;;;;;13.55;66.13;99729.59;10330698;28;20054;-66
2022/05/25 03:39:58;;;;;;;0.57;0.50;;;;;;;13.21;67.69;99722.41;10331176;28;20050;-66
2022/05/25 03:45:02;;;;;;;1.30;0.50;;;;;;;13.26;67.06;99738.06;10330952;28;20127;-66
2022/05/25 03:50:04;;;;;;;1.80;0.60;;;;;;;13.26;66.91;99724.84;10313288;28;20076;-66
2022/05/25 03:55:07;;;;;;;1.40;0.70;;;;;;;13.32;67.81;99735.97;10330474;28;20054;-66
2022/05/25 04:00:08;;;;;;;0.65;0.50;;;;;;;13.47;67.17;99731.75;10330468;28;20050;-66
2022/05/25 04:05:10;;;;;;;2.17;0.70;;;;;;;13.60;67.24;99724.09;10312671;28;20054;-66
2022/05/25 04:10:15;;;;;;;1.17;0.70;;;;;;;13.70;66.27;99738.53;10330068;28;20054;-66
2022/05/25 04:15:23;;;;;;;1.88;0.60;;;;;;;13.93;65.48;99732.09;10329887;28;20050;-66
2022/05/25 04:20:27;;;;;;;0.90;0.60;;;;;;;14.01;64.45;99732.59;10312208;28;20058;-66
2022/05/25 04:25:30;;;;;;;1.63;0.80;;;;;;;14.17;64.48;99735.31;10329659;28;20133;-66
2022/05/25 04:30:32;;;;;;;1.58;0.80;;;;;;;14.20;64.69;99742.22;10329557;28;20466;-66
2022/05/25 04:35:33;;;;;;;2.63;1.00;;;;;;;14.33;64.11;99753.88;10329157;28;20419;-66
2022/05/25 04:40:43;;;;;;;1.48;0.85;;;;;;;14.64;63.25;99751.34;10330044;28;20046;-66
2022/05/25 04:45:46;;;;;;;1.40;0.80;;;;;;;14.81;62.37;99754.91;10328260;28;20042;-67
2022/05/25 04:50:48;;;;;;;1.05;0.90;;;;;;;14.76;62.05;99765.75;10328703;28;20058;-67
2022/05/25 05:01:12;;;;;;;1.08;0.70;;;;;;;15.02;61.08;99768.78;10311156;28;20054;-67
2022/05/25 05:06:14;;;;;;;2.17;0.73;;;;;;;15.25;61.37;99770.16;10327948;28;20384;-67
2022/05/25 05:11:18;;;;;;;1.90;0.80;;;;;;;15.44;62.39;99776.13;10328159;28;20492;-67
2022/05/25 05:16:20;;;;;;;1.75;0.90;;;;;;;15.86;60.22;99764.94;10328008;28;20043;-66
2022/05/25 05:21:32;;;;;;;1.15;0.70;;;;;;;16.08;59.90;99761.91;10310629;28;20042;-66
2022/05/25 05:26:34;;;;;;;2.65;1.00;;;;;;;16.68;58.70;99774.22;10327836;28;20170;-67
2022/05/25 05:31:35;;;;;;;1.48;0.80;;;;;;;16.48;60.49;99772.78;10327498;28;20504;-66
2022/05/25 05:36:45;;;;;;;1.92;1.10;;;;;;;16.25;60.78;99790.09;10327764;28;20450;-67
2022/05/25 05:41:51;;;;;;;4.93;1.00;;;;;;;16.32;59.87;99806.47;10327041;28;20046;-66
2022/05/25 05:46:53;;;;;;;;;;;;;;;16.07;59.93;99799.09;10327795;28;20057;-66
2022/05/25 05:51:55;;;;;;;2.95;0.85;;;;;;;15.79;60.92;99802.47;10327304;28;19922;-67
2022/05/25 05:56:58;;;;;;;3.95;1.25;;;;;;;15.82;62.15;99799.66;10332054;28;20415;-67
2022/05/25 06:02:00;;;;;;;2.28;0.80;;;;;;;16.38;56.50;99808.78;10333678;28;20100;-66
2022/05/25 06:07:03;;;;;;;3.20;1.00;;;;;;;16.55;55.24;99807.75;10333794;28;20104;-66
2022/05/25 06:12:05;;;;;;;0.80;0.77;;;;;;;16.23;58.33;99830.88;10334805;28;20457;-66
2022/05/25 06:22:27;;;;;;;2.20;0.70;;;;;;;15.73;58.99;99839.94;10333568;28;20054;-66
2022/05/25 06:27:29;;;;;;;0.77;0.60;;;;;;;15.93;58.40;99841.44;10333142;28;20088;-66
2022/05/25 06:32:30;;;;;;;2.45;0.60;;;;;;;15.79;60.02;99839.56;10333035;28;20046;-67
2022/05/25 06:37:32;;;;;;;1.08;0.70;;;;;;;16.17;57.36;99847.16;10315992;28;20054;-66
2022/05/25 06:42:34;;;;;;;1.90;0.70;;;;;;;15.99;60.11;99857.88;10332738;28;20055;-67
2022/05/25 06:47:41;;;;;;;1.73;0.57;;;;;;;15.97;58.91;99864.19;10333039;28;20062;-67
2022/05/25 06:52:43;;;;;;;1.15;0.55;;;;;;;15.81;60.03;99866.88;10332415;28;20053;-67
2022/05/25 06:57:44;;;;;;;2.13;0.63;;;;;;;15.85;60.21;99885.16;10332125;28;20042;-66
2022/05/25 07:02:46;;;;;;;1.23;0.45;;;;;;;16.09;58.71;99890.88;10332437;28;20069;-67
2022/05/25 07:07:48;;;;;;;2.08;0.60;;;;;;;15.98;59.36;99893.28;10330898;28;20046;-67
2022/05/25 07:12:49;;;;;;;1.55;0.60;;;;;;;15.90;60.34;99895.50;10331773;28;20099;-67
2022/05/25 07:17:51;;;;;;;1.30;0.73;;;;;;;16.29;57.88;99899.47;10331654;28;20129;-66
2022/05/25 07:22:52;;;;;;;0.95;0.40;;;;;;;16.12;57.72;99900.47;10331590;28;20100;-67
2022/05/25 07:27:54;;;;;;;3.85;0.63;;;;;;;15.97;59.08;99906.59;10331393;28;20093;-67
2022/05/25 07:32:57;;;;;;;2.72;0.75;;;;;;;15.85;59.61;99924.06;10331684;28;20076;-68
2022/05/25 07:37:59;;;;;;;3.67;0.60;;;;;;;16.00;58.48;99923.22;10398533;28;20454;-68
2022/05/25 07:43:08;;;;;;;1.10;0.50;;;;;;;15.60;65.19;99925.38;10330971;28;20121;-67
2022/05/25 07:48:10;;;;;;;1.92;0.63;;;;;;;15.56;65.59;99937.06;10331073;28;20434;-68
2022/05/25 07:58:36;;;;;;;1.10;0.80;;;;;;;15.35;71.41;99946.16;10330990;28;20034;-67
2022/05/25 08:08:58;;;;;;;4.40;0.90;;;;;;;15.99;67.20;99950.66;10331467;28;20050;-68
2022/05/25 08:14:00;;;;;;;1.33;0.73;;;;;;;16.04;66.67;99956.56;10330138;28;20056;-67
2022/05/25 08:19:01;;;;;;;1.85;0.60;;;;;;;15.90;66.91;99959.13;10329706;28;20046;-66
2022/05/25 08:24:03;;;;;;;0.60;0.60;;;;;;;16.18;62.69;99963.75;10346688;22;20066;-77
2022/05/25 08:29:04;;;;;;;0.75;0.45;;;;;;;16.07;62.44;99966.13;10333589;28;20046;-75
2022/05/25 08:34:06;;;;;;;2.88;0.80;;;;;;;16.30;62.76;99971.03;10333286;28;20057;-74
2022/05/25 08:39:08;;;;;;;1.60;0.77;;;;;;;16.36;63.06;99970.66;10335854;28;20133;-74
2022/05/25 08:44:11;;;;;;;2.72;0.82;;;;;;;16.48;61.50;99955.84;10332681;28;20055;-73
2022/05/25 08:49:16;;;;;;;2.55;0.65;;;;;;;16.48;60.41;99966.47;10332022;28;20049;-75
2022/05/25 08:54:19;;;;;;;2.20;0.90;;;;;;;16.53;59.63;99964.41;10334438;28;20038;-74
2022/05/25 08:59:34;;;;;;;0.80;0.65;;;;;;;16.55;58.94;99956.34;10333039;28;20038;-73
2022/05/25 09:04:44;;;;;;;1.63;0.70;;;;;;;16.62;59.89;99961.22;10332428;28;20088;-73
2022/05/25 09:09:49;;;;;;;1.20;0.73;;;;;;;16.74;58.41;99956.19;10332812;28;20034;-76
2022/05/25 09:15:16;;;;;;;1.98;0.70;;;;;;;16.81;58.18;99957.50;10330753;28;20099;-74
2022/05/25 09:20:25;;;;;;;0.68;0.40;;;;;;;17.06;56.32;99967.56;10330947;28;20084;-75
2022/05/25 09:25:28;;;;;;;1.70;0.70;;;;;;;17.18;55.76;99971.25;10331063;28;20051;-74
2022/05/25 09:30:33;;;;;;;0.93;0.65;;;;;;;17.41;52.47;99962.78;10315869;28;20104;-75
2022/05/25 09:35:42;;;;;;;1.15;0.60;;;;;;;17.31;53.40;99969.56;10293269;28;20515;-73
2022/05/25 09:40:51;;;;;;;3.08;0.70;;;;;;;17.43;52.76;99960.84;10294549;28;20053;-75
2022/05/25 09:45:59;;;;;;;0.47;0.43;;;;;;;17.59;53.16;99955.47;10322105;28;20119;-74
2022/05/25 09:51:19;;;;;;;0.47;0.40;;;;;;;17.91;50.75;99961.44;10329369;28;20050;-74
2022/05/25 09:56:28;;;;;;;2.67;0.60;;;;;;;18.26;50.36;99961.00;10330460;28;20046;-74
2022/05/25 10:01:34;;;;;;;0.70;0.30;;;;;;;18.40;49.21;99960.97;10331123;28;20038;-75
2022/05/25 10:06:48;;;;;;;1.02;0.60;;;;;;;18.53;48.51;99969.00;10330990;28;20480;-72
2022/05/25 10:11:53;;;;;;;2.05;0.60;;;;;;;19.02;48.19;99961.28;10330041;28;20050;-74
2022/05/25 10:16:59;;;;;;;1.45;0.60;;;;;;;19.24;48.01;99959.81;10331063;28;20049;-74
2022/05/25 10:22:33;;;;;;;2.05;0.40;;;;;;;19.89;45.50;99955.22;10328736;28;20118;-74
2022/05/25 10:27:42;;;;;;;2.17;0.40;;;;;;;19.76;47.40;99946.38;10329803;28;20053;-74
2022/05/25 10:38:11;;;;;;;0.93;0.50;;;;;;;20.28;45.00;99955.13;10330589;28;20138;-75
2022/05/25 10:43:22;;;;;;;0.63;0.45;;;;;;;19.88;46.14;99953.53;10334264;28;20050;-74
2022/05/25 10:48:52;;;;;;;1.27;0.50;;;;;;;19.89;47.15;99949.03;10334725;28;20096;-73
2022/05/25 10:59:39;;;;;;;1.38;0.40;;;;;;;22.09;41.48;99945.59;10337038;28;20553;-72
2022/05/25 11:04:59;;;;;;;1.55;0.40;;;;;;;22.81;39.79;99933.47;10337825;28;20042;-73
2022/05/25 11:10:35;;;;;;;0.68;0.30;;;;;;;23.38;39.19;99924.13;10335846;28;20096;-74
2022/05/25 11:15:52;;;;;;;2.05;0.40;;;;;;;23.40;37.32;99927.50;10334449;28;20046;-73
2022/05/25 11:21:29;;;;;;;2.20;0.40;;;;;;;23.63;37.35;99914.75;10335320;28;20069;-73
2022/05/25 11:26:37;;;;;;;1.58;0.40;;;;;;;22.85;39.23;99924.19;10335938;28;20074;-73
2022/05/25 11:32:09;;;;;;;0.30;0.30;;;;;;;22.78;39.85;99921.16;10335672;28;20046;-73
2022/05/25 11:37:29;;;;;;;2.10;0.50;;;;;;;22.29;39.17;99925.25;10334745;28;20421;-73
2022/05/25 11:43:15;;;;;;;0.32;0.20;;;;;;;22.72;40.64;99910.13;10334133;28;20087;-74
2022/05/25 11:48:40;;;;;;;1.08;0.60;;;;;;;22.83;39.38;99912.72;10348515;28;20573;-73
2022/05/25 11:53:49;;;;;;;0.90;0.40;;;;;;;23.39;38.99;99901.69;10353363;28;20517;-72
2022/05/25 11:59:13;;;;;;;2.90;0.47;;;;;;;23.39;39.14;99899.00;10333101;28;20042;-73
2022/05/25 12:04:24;;;;;;;9.15;0.80;;;;;;;22.99;38.97;99906.97;10333707;28;20042;-73
2022/05/25 12:09:40;;;;;;;0.98;0.60;;;;;;;22.61;39.66;99902.97;10334100;28;20141;-74
2022/05/25 12:15:23;;;;;;;0.70;0.40;;;;;;;22.33;39.91;99899.06;10335551;28;20057;-75
2022/05/25 12:20:33;;;;;;;1.35;0.95;;;;;;;22.91;39.44;99894.19;10417904;28;20050;-74
2022/05/25 12:25:36;;;;;;;1.02;0.43;;;;;;;22.86;37.88;99891.03;10399851;28;20053;-75
2022/05/25 12:30:43;;;;;;;3.63;0.65;;;;;;;23.38;35.46;99887.41;10416861;28;20124;-74
2022/05/25 12:35:45;;;;;;;1.88;0.40;;;;;;;23.42;34.93;99893.38;10399827;28;20392;-74
2022/05/25 12:40:51;;;;;;;1.90;0.45;;;;;;;23.47;35.67;99877.72;10415424;28;20483;-74
2022/05/25 12:51:36;;;;;;;1.08;0.43;;;;;;;23.35;36.66;99887.69;10351462;28;19922;-73
2022/05/25 12:56:38;;;;;;;0.70;0.40;;;;;;;23.34;36.54;99891.34;10332457;28;20046;-74
2022/05/25 13:01:42;;;;;;;1.05;0.65;;;;;;;22.94;36.64;99883.22;10416080;28;20405;-73
2022/05/25 13:06:46;;;;;;;2.35;0.50;;;;;;;23.09;35.72;99881.88;10330522;28;20052;-74
2022/05/25 13:11:51;;;;;;;0.70;0.40;;;;;;;23.46;34.54;99884.03;10332247;28;20440;-72
2022/05/25 13:16:59;;;;;;;1.73;0.68;;;;;;;23.08;35.53;99880.19;10332145;28;20507;-74
2022/05/25 13:22:06;;;;;;;2.22;0.50;;;;;;;23.45;34.56;99876.97;10331729;28;20057;-74
2022/05/25 13:27:21;;;;;;;2.22;0.40;;;;;;;23.19;33.17;99881.09;10331873;28;20050;-73
2022/05/25 13:32:51;;;;;;;0.80;0.30;;;;;;;23.25;33.96;99877.91;10330836;28;20065;-75
2022/05/25 13:37:57;;;;;;;1.65;0.40;;;;;;;23.35;34.95;99870.75;10330697;28;20043;-74
2022/05/25 13:43:00;;;;;;;1.40;0.40;;;;;;;23.40;33.79;99873.84;10328864;28;20048;-74
2022/05/25 13:48:02;;;;;;;1.00;0.50;;;;;;;23.39;33.75;99866.81;10330725;28;20038;-75
2022/05/25 13:53:08;;;;;;;1.17;0.40;;;;;;;23.40;34.12;99863.97;10328683;28;20077;-74
2022/05/25 13:58:16;;;;;;;1.63;0.30;;;;;;;23.30;33.67;99871.16;10327299;28;20043;-74
2022/05/25 14:03:18;;;;;;;0.60;0.30;;;;;;;23.36;35.89;99861.69;10327950;28;20050;-74
2022/05/25 14:10:54;;;;;;;1.55;0.40;;;;;;;22.53;35.51;99854.53;10329606;28;20117;-73
2022/05/25 14:13:51;;;;;;;0.38;0.30;;;;;;;22.58;36.54;99861.22;10329060;28;20046;-74
2022/05/25 14:18:55;;;;;;;3.28;0.47;;;;;;;23.12;34.99;99853.97;10335629;28;20043;-75
2022/05/25 14:23:59;;;;;;;1.25;0.30;;;;;;;22.40;35.70;99855.59;10325970;22;20043;-66
2022/05/25 14:29:06;;;;;;;2.40;0.40;;;;;;;22.02;35.82;99858.72;10292926;28;20038;-66
2022/05/25 14:34:11;;;;;;;0.63;0.30;;;;;;;22.19;37.38;99857.38;10323086;28;20518;-67
2022/05/25 14:39:17;;;;;;;1.83;0.40;;;;;;;22.93;35.74;99849.34;10333075;28;20050;-67
2022/05/25 14:44:31;;;;;;;;;;;;;;;23.04;34.30;99841.22;10333406;28;20047;-65
2022/05/25 14:49:32;;;;;;;1.13;0.43;;;;;;;23.22;34.50;99845.97;10332947;28;20424;-68
2022/05/25 14:54:34;;;;;;;2.22;0.30;;;;;;;23.69;35.27;99835.59;10331419;28;20046;-68
2022/05/25 14:59:42;;;;;;;0.93;0.40;;;;;;;23.74;34.58;99839.56;10331009;28;20058;-67
2022/05/25 15:04:43;;;;;;;1.65;0.60;;;;;;;23.33;34.05;99837.81;10332238;28;20046;-67
2022/05/25 15:09:45;;;;;;;2.25;0.40;;;;;;;23.72;33.73;99825.41;10332178;28;20046;-67
2022/05/25 15:20:25;;;;;;;3.80;0.40;;;;;;;22.91;34.99;99840.59;10332594;28;20089;-66
2022/05/25 15:25:33;;;;;;;0.20;0.20;;;;;;;22.45;35.52;99852.53;10331387;28;20167;-66
2022/05/25 15:30:49;;;;;;;1.05;0.30;;;;;;;22.31;36.45;99847.44;10329364;28;20091;-66
2022/05/25 15:36:18;;;;;;;0.60;0.32;;;;;;;22.06;37.74;99844.13;10331355;28;20046;-66
2022/05/25 15:41:24;;;;;;;1.42;0.95;;;;;;;22.02;36.54;99840.00;10335431;28;20097;-66
2022/05/25 15:46:26;;;;;;;0.50;0.40;;;;;;;23.05;35.51;99837.56;10331559;28;20096;-66
2022/05/25 15:51:33;;;;;;;0.85;0.40;;;;;;;23.51;34.87;99832.69;10330685;28;20050;-67
2022/05/25 15:56:34;;;;;;;0.80;0.40;;;;;;;23.04;34.31;99843.06;10328880;28;20050;-66
2022/05/25 16:01:37;;;;;;;1.48;0.30;;;;;;;22.82;34.50;99844.88;10330397;28;20488;-66
2022/05/25 16:06:38;;;;;;;0.85;0.40;;;;;;;23.33;34.03;99841.38;10330403;28;20057;-67
2022/05/25 16:11:51;;;;;;;1.02;0.47;;;;;;;22.89;34.61;99850.56;10330316;28;20042;-66
2022/05/25 16:16:53;;;;;;;4.18;2.20;;;;;;;22.41;35.67;99857.28;10330157;28;20415;-67
2022/05/25 16:22:05;;;;;;;1.98;0.40;;;;;;;21.79;37.88;99854.41;10329055;28;20050;-67
2022/05/25 16:27:07;;;;;;;4.97;1.08;;;;;;;21.81;37.25;99853.31;10330203;28;20100;-67
2022/05/25 16:32:13;;;;;;;1.55;1.00;;;;;;;21.40;37.98;99853.97;10329979;28;20108;-67
2022/05/25 16:37:15;;;;;;;;;;;;;;;21.66;37.46;99868.78;10330911;28;20480;-67
2022/05/25 16:42:17;;;;;;;1.55;1.20;;;;;;;21.52;38.92;99866.38;10328150;28;19967;-67
2022/05/25 16:47:19;;;;;;;1.75;0.60;;;;;;;21.51;37.73;99866.47;10325819;28;20400;-67
2022/05/25 16:52:20;;;;;;;2.70;0.40;;;;;;;21.45;38.69;99873.16;10311668;28;20107;-67
2022/05/25 16:57:22;;;;;;;2.63;0.40;;;;;;;21.21;39.90;99869.75;10306641;28;20055;-67
2022/05/25 17:02:23;;;;;;;0.82;0.50;;;;;;;21.01;39.88;99873.94;10288698;28;20059;-67
2022/05/25 17:07:26;;;;;;;1.33;0.50;;;;;;;21.08;39.82;99877.88;10320248;28;20038;-67
2022/05/25 17:12:27;;;;;;;0.40;0.32;;;;;;;21.28;38.38;99881.63;10328268;28;20058;-67
2022/05/25 17:17:29;;;;;;;1.55;0.63;;;;;;;20.85;40.83;99874.28;10329330;28;20499;-67
2022/05/25 17:22:31;;;;;;;1.15;0.40;;;;;;;21.26;39.41;99878.25;10320100;28;20522;-67
2022/05/25 17:27:33;;;;;;;1.75;0.60;;;;;;;21.36;39.59;99881.91;10327443;28;20042;-67
2022/05/25 17:32:35;;;;;;;1.17;0.47;;;;;;;20.81;41.18;99888.88;10325968;28;20054;-67
2022/05/25 17:42:56;;;;;;;3.20;0.90;;;;;;;20.81;41.78;99899.56;10327490;28;20065;-67
2022/05/25 17:47:58;;;;;;;2.05;1.00;;;;;;;20.58;41.86;99898.59;10327302;28;20466;-67
2022/05/25 17:53:01;;;;;;;0.88;0.50;;;;;;;20.66;42.31;99912.22;10332432;28;20050;-67
2022/05/25 17:58:04;;;;;;;0.50;0.50;;;;;;;20.63;41.41;99910.66;10313233;28;20043;-67
2022/05/25 18:03:06;;;;;;;2.65;0.70;;;;;;;20.35;42.08;99918.97;10295342;28;20058;-67
2022/05/25 18:08:08;;;;;;;0.82;0.50;;;;;;;20.31;41.99;99920.16;10294092;28;20566;-67
2022/05/25 18:13:12;;;;;;;2.17;0.68;;;;;;;20.03;43.21;99924.88;10294077;28;20458;-67
2022/05/25 18:18:16;;;;;;;1.85;0.75;;;;;;;19.90;44.59;99924.91;10293310;28;20051;-67
2022/05/25 18:23:18;;;;;;;0.82;0.75;;;;;;;19.62;44.67;99926.03;10292883;28;20117;-67
2022/05/25 18:28:19;;;;;;;2.35;1.00;;;;;;;19.28;46.20;99929.31;10292200;28;20070;-67
2022/05/25 18:33:21;;;;;;;1.17;0.70;;;;;;;19.23;46.17;99937.66;10323020;28;20054;-66
2022/05/25 18:38:22;;;;;;;1.25;0.73;;;;;;;18.95;47.87;99929.81;10333034;28;20126;-66
2022/05/25 18:43:24;;;;;;;1.05;0.60;;;;;;;18.60;48.76;99939.22;10332460;28;20167;-66
2022/05/25 18:48:26;;;;;;;1.77;0.50;;;;;;;18.37;48.64;99940.75;10332646;28;20050;-67
2022/05/25 18:53:27;;;;;;;1.25;0.63;;;;;;;18.21;49.45;99952.47;10332367;28;20050;-67
2022/05/25 18:58:30;;;;;;;1.90;0.70;;;;;;;18.15;49.51;99959.91;10332264;28;20418;-68
2022/05/25 19:03:31;;;;;;;1.50;0.82;;;;;;;18.43;48.87;99966.09;10329837;28;20458;-67
2022/05/25 19:08:33;;;;;;;2.25;0.98;;;;;;;18.13;50.00;99966.25;10332928;28;20106;-67
2022/05/25 19:13:35;;;;;;;1.80;0.80;;;;;;;18.05;50.23;99973.88;10331954;28;20046;-67
2022/05/25 19:18:37;;;;;;;1.83;1.20;;;;;;;18.02;50.46;99968.75;10331904;28;20385;-67
2022/05/25 19:23:43;;;;;;;3.15;1.20;;;;;;;17.78;51.45;99987.09;10331275;28;20070;-67
2022/05/25 19:28:45;;;;;;;1.17;0.90;;;;;;;17.55;52.83;99988.50;10331609;28;20053;-68
2022/05/25 19:33:46;;;;;;;2.45;1.02;;;;;;;17.55;52.49;99992.00;10309656;28;20111;-67
2022/05/25 19:38:51;;;;;;;3.40;1.35;;;;;;;17.45;53.04;100006.81;10307317;28;20039;-67
2022/05/25 19:44:00;;;;;;;3.00;1.00;;;;;;;17.10;53.76;100017.75;10304576;28;20050;-67
2022/05/25 19:49:02;;;;;;;3.55;1.75;;;;;;;17.61;52.05;100026.16;10438605;28;20040;-67
2022/05/25 19:54:04;;;;;;;3.45;1.55;;;;;;;17.62;49.45;100024.41;10542954;28;20078;-68
2022/05/25 19:59:06;;;;;;;1.95;1.10;;;;;;;17.69;48.54;100046.97;10353135;28;20061;-67
2022/05/25 20:04:07;;;;;;;1.75;0.70;;;;;;;17.73;48.87;100034.34;10328069;28;20050;-67
2022/05/25 20:09:12;;;;;;;1.17;0.60;;;;;;;17.73;47.21;100042.34;10330044;28;20054;-67
2022/05/25 20:14:13;;;;;;;2.33;0.60;;;;;;;17.54;48.72;100038.13;10313191;28;20108;-67
2022/05/25 20:19:15;;;;;;;1.15;0.57;;;;;;;17.51;48.86;100048.94;10290155;28;20581;-68
2022/05/25 20:24:17;;;;;;;1.10;0.80;;;;;;;17.39;49.37;100047.88;10301119;22;20043;-82
2022/05/25 20:29:18;;;;;;;3.55;1.00;;;;;;;17.38;49.52;100056.78;10275013;28;20050;-81
2022/05/25 20:34:21;;;;;;;2.00;0.88;;;;;;;17.41;49.42;100058.44;10266345;28;20047;-83
2022/05/25 20:39:22;;;;;;;1.40;1.10;;;;;;;17.45;49.08;100048.47;10263242;29;20485;-83
2022/05/25 20:44:24;;;;;;;1.63;0.80;;;;;;;17.38;48.88;100056.78;10264273;28;20077;-83
2022/05/25 20:49:25;;;;;;;1.67;0.90;;;;;;;17.24;49.66;100063.88;10274773;28;20043;-83
2022/05/25 20:54:29;;;;;;;1.50;0.52;;;;;;;17.36;47.99;100055.19;10272751;28;20023;-83
2022/05/25 20:59:30;;;;;;;1.48;0.98;;;;;;;17.32;48.71;100053.66;10272699;29;20047;-83
2022/05/25 21:04:32;;;;;;;1.13;0.75;;;;;;;17.07;48.96;100063.06;10264722;28;20039;-82
2022/05/25 21:09:41;;;;;;;0.95;0.65;;;;;;;17.01;48.89;100073.19;10278163;29;20043;-81
2022/05/25 21:14:43;;;;;;;3.83;0.68;;;;;;;16.97;48.64;100079.63;10296239;28;20071;-82
2022/05/25 21:19:44;;;;;;;0.95;0.50;;;;;;;16.70;49.61;100082.00;10298410;28;20066;-82
2022/05/25 21:24:46;;;;;;;1.15;0.50;;;;;;;16.55;50.06;100084.56;10298689;28;20051;-80
2022/05/25 21:29:48;;;;;;;2.00;0.60;;;;;;;16.61;49.89;100086.03;10299486;28;20062;-83
2022/05/25 21:34:51;;;;;;;0.80;0.50;;;;;;;16.60;49.42;100081.66;10298632;28;20077;-83
2022/05/25 21:39:53;;;;;;;0.98;0.55;;;;;;;16.51;49.83;100083.06;10290395;28;20047;-81
2022/05/25 21:44:54;;;;;;;1.67;0.57;;;;;;;16.35;50.76;100076.88;10256853;28;20055;-82
2022/05/25 21:49:56;;;;;;;0.77;0.40;;;;;;;16.38;49.52;100079.38;10242386;28;20075;-80
2022/05/25 21:54:58;;;;;;;0.98;0.70;;;;;;;16.47;49.20;100091.22;10260307;28;20189;-80
2022/05/25 21:59:59;;;;;;;2.25;0.63;;;;;;;16.51;49.27;100098.09;10258239;29;20048;-80
2022/05/25 22:05:01;;;;;;;0.90;0.70;;;;;;;16.37;50.12;100091.75;10261036;28;20101;-79
2022/05/25 22:10:03;;;;;;;0.98;0.63;;;;;;;16.36;50.44;100086.53;10273047;29;20066;-81
2022/05/25 22:15:05;;;;;;;1.13;0.60;;;;;;;16.07;51.92;100096.94;10258562;28;20051;-80
2022/05/25 22:20:07;;;;;;;1.98;0.80;;;;;;;15.94;52.00;100090.56;10258572;29;20496;-80
2022/05/25 22:25:09;;;;;;;1.95;0.77;;;;;;;15.92;52.76;100096.88;10260969;28;20139;-80
2022/05/25 22:30:12;;;;;;;1.45;0.93;;;;;;;15.79;53.13;100099.31;10260371;28;20046;-79
2022/05/25 22:35:15;;;;;;;2.08;0.82;;;;;;;15.63;53.61;100100.09;10260045;28;20483;-80
2022/05/25 22:40:16;;;;;;;1.52;0.82;;;;;;;15.46;54.02;100112.47;10263239;28;20097;-80
2022/05/25 22:45:18;;;;;;;1.67;0.82;;;;;;;15.56;53.57;100105.78;10269650;28;20408;-80
2022/05/25 22:50:20;;;;;;;1.30;0.80;;;;;;;15.44;54.57;100103.75;10265976;29;20048;-80
2022/05/25 22:55:21;;;;;;;1.00;0.82;;;;;;;15.37;54.84;100105.84;10265172;28;20047;-80
2022/05/25 23:00:23;;;;;;;1.02;0.80;;;;;;;15.44;54.37;100109.88;10265538;28;20043;-78
2022/05/25 23:05:24;;;;;;;1.42;0.77;;;;;;;15.33;54.34;100114.88;10268476;28;20062;-77
2022/05/25 23:10:26;;;;;;;2.17;0.80;;;;;;;15.31;54.07;100112.28;10267965;29;20039;-78
2022/05/25 23:15:27;;;;;;;1.85;0.60;;;;;;;15.17;54.18;100109.47;10283653;28;20055;-79
2022/05/25 23:20:29;;;;;;;1.45;0.85;;;;;;;15.08;54.37;100113.44;10277138;29;20066;-80
2022/05/25 23:25:31;;;;;;;1.50;1.00;;;;;;;15.09;54.27;100111.66;10270238;28;20060;-79
2022/05/25 23:30:32;;;;;;;1.85;1.05;;;;;;;15.00;53.98;100107.66;10269347;28;20101;-80
2022/05/25 23:35:36;;;;;;;1.77;0.70;;;;;;;14.86;54.20;100108.34;10264723;28;20098;-79
2022/05/25 23:46:21;;;;;;;2.38;1.08;;;;;;;14.87;54.08;100119.78;10388199;28;20049;-80
2022/05/25 23:51:28;;;;;;;2.05;0.77;;;;;;;14.77;54.18;100110.56;10388517;28;20466;-80
2022/05/25 23:56:30;;;;;;;1.85;0.80;;;;;;;14.76;54.33;100115.00;10372136;28;20049;-80
